Aviation Digital Data Service (ADDS)

Output produced by TAFs form (1213 UTC 01 October 2014)
found at http://aviationweather.gov/adds/tafs/
 
KASE 011141Z 0112/0212 21004KT P6SM VCSH SCT050 OVC070 
     FM011500 36006KT P6SM -SHRA SCT035 OVC050 
     FM012000 34010KT P6SM -SHRA VCTS FEW025 BKN040 OVC060CB 
     FM020300 33005KT P6SM VCSH SCT025 OVC050 
     TEMPO 0203/0207 4SM -SN BR BKN025 
     FM020700 31003KT P6SM OVC050